Time;durP1;ratioP1;P1;durP2;ratioP2;P2;SDS_P1;SDS_P2;PMS_P1;PMS_P2;Temp;Humidity;BMP_temperature;BMP_pressure;BME280_temperature;BME280_humidity;BME280_pressure;Samples;Min_cycle;Max_cycle;Signal;HPM_P1;HPM_P2
2023/06/12 00:01:19;;;;;;;;;;;;;;;-140.72;0.00;52102.75;6243854;23;19916;-72
2023/06/12 00:03:47;;;;;;;;;;;;;;;-140.72;0.00;52080.41;6216852;23;20388;-72
2023/06/12 00:06:14;;;;;;;;;;;;;;;-140.72;0.00;52062.16;6244562;23;19915;-72
2023/06/12 00:08:41;;;;;;;;;;;;;;;-140.72;0.00;52118.97;6244699;23;19958;-72
2023/06/12 00:11:09;;;;;;;;;;;;;;;-140.72;0.00;52098.69;6244865;23;19911;-72
2023/06/12 00:13:35;;;;;;;;;;;;;;;-140.72;0.00;52090.56;6245649;23;19955;-72
2023/06/12 00:16:00;;;;;;;;;;;;;;;-140.72;0.00;52082.44;6244488;23;19911;-72
2023/06/12 00:18:25;;;;;;;;;;;;;;;-140.72;0.00;52090.56;6244522;23;19918;-72
2023/06/12 00:20:50;;;;;;;;;;;;;;;-140.72;0.00;52110.84;6243729;23;20347;-72
2023/06/12 00:23:16;;;;;;;;;;;;;;;-140.72;0.00;52086.50;6244824;23;20573;-72
2023/06/12 00:25:41;;;;;;;;;;;;;;;-140.72;0.00;52155.50;6244385;23;19934;-72
2023/06/12 00:28:07;;;;;;;;;;;;;;;-140.72;0.00;52098.69;6244454;23;19911;-72
2023/06/12 00:30:32;;;;;;;;;;;;;;;-140.72;0.00;52110.84;6243982;23;19915;-72
2023/06/12 00:32:57;;;;;;;;;;;;;;;-140.72;0.00;52118.97;6244085;23;20002;-72
2023/06/12 00:35:22;;;;;;;;;;;;;;;-140.72;0.00;52125.06;6243944;23;19954;-72
2023/06/12 00:37:49;;;;;;;;;;;;;;;-140.72;0.00;52090.56;6244158;23;19911;-71
2023/06/12 00:40:14;;;;;;;;;;;;;;;-140.72;0.00;52090.56;6244062;23;19919;-73
2023/06/12 00:42:47;;;;;;;;;;;;;;;-140.72;0.00;52110.84;6243925;23;19912;-72
2023/06/12 00:45:16;;;;;;;;;;;;;;;-140.72;0.00;52118.97;6243632;23;20061;-73
2023/06/12 00:48:17;;;;;;;;;;;;;;;-140.72;0.00;52133.16;6216083;23;19939;-72
2023/06/12 00:50:44;;;;;;;;;;;;;;;-140.72;0.00;52125.06;6243843;23;19923;-72
2023/06/12 00:53:15;;;;;;;;;;;;;;;-140.72;0.00;52139.25;6244217;23;19912;-72
2023/06/12 00:55:41;;;;;;;;;;;;;;;-140.72;0.00;52114.91;6243863;23;19967;-72
2023/06/12 00:58:06;;;;;;;;;;;;;;;-140.72;0.00;52094.63;6244092;23;19998;-72
2023/06/12 01:00:31;;;;;;;;;;;;;;;-140.72;0.00;52116.94;6245250;23;19912;-73
2023/06/12 01:03:04;;;;;;;;;;;;;;;-140.72;0.00;52149.41;6246251;23;20324;-72
2023/06/12 01:05:33;;;;;;;;;;;;;;;-140.72;0.00;52116.94;6245795;23;19912;-73
2023/06/12 01:08:10;;;;;;;;;;;;;;;-140.72;0.00;52123.03;6245839;23;19919;-73
2023/06/12 01:10:45;;;;;;;;;;;;;;;-140.72;0.00;52147.38;6245479;23;20220;-72
2023/06/12 01:13:11;;;;;;;;;;;;;;;-140.72;0.00;52151.44;6245977;23;19956;-73
2023/06/12 01:16:05;;;;;;;;;;;;;;;-140.72;0.00;52135.19;6244809;23;20326;-74
2023/06/12 01:18:32;;;;;;;;;;;;;;;-140.72;0.00;52171.72;6246091;23;19966;-72
2023/06/12 01:20:58;;;;;;;;;;;;;;;-140.72;0.00;52131.16;6245121;23;19943;-72
2023/06/12 01:23:38;;;;;;;;;;;;;;;-140.72;0.00;52121.00;6246008;23;19912;-72
2023/06/12 01:26:10;;;;;;;;;;;;;;;-140.72;0.00;52141.28;6245763;23;20280;-72
2023/06/12 01:28:39;;;;;;;;;;;;;;;-140.72;0.00;52131.16;6245718;23;19935;-72
2023/06/12 01:31:20;;;;;;;;;;;;;;;-140.72;0.00;52135.19;6218553;23;19934;-73
2023/06/12 01:34:07;;;;;;;;;;;;;;;-140.72;0.00;52137.22;6218445;23;19944;-71
2023/06/12 01:36:36;;;;;;;;;;;;;;;-140.72;0.00;52147.38;6245194;23;19915;-72
2023/06/12 01:39:04;;;;;;;;;;;;;;;-140.72;0.00;52127.09;6245160;23;19937;-72
2023/06/12 01:41:29;;;;;;;;;;;;;;;-140.72;0.00;52179.84;6218099;23;19919;-72
2023/06/12 01:43:54;;;;;;;;;;;;;;;-140.72;0.00;52147.38;6245143;23;20007;-72
2023/06/12 01:46:20;;;;;;;;;;;;;;;-140.72;0.00;52167.66;6245227;22;19911;-72
2023/06/12 01:48:45;;;;;;;;;;;;;;;-140.72;0.00;52169.69;6245236;23;19911;-72
2023/06/12 01:51:10;;;;;;;;;;;;;;;-140.72;0.00;52114.91;6245177;23;19915;-72
2023/06/12 01:53:35;;;;;;;;;;;;;;;-140.72;0.00;52127.09;6244871;23;19946;-72
2023/06/12 01:56:01;;;;;;;;;;;;;;;-140.72;0.00;52179.84;6245372;23;20315;-72
2023/06/12 01:58:26;;;;;;;;;;;;;;;-140.72;0.00;52163.59;6245014;23;19994;-72
2023/06/12 02:00:53;;;;;;;;;;;;;;;-140.72;0.00;52139.25;6245339;23;19926;-72
2023/06/12 02:03:20;;;;;;;;;;;;;;;-140.72;0.00;52163.59;6248439;23;19911;-72
2023/06/12 02:05:45;;;;;;;;;;;;;;;-140.72;0.00;52143.31;6221551;23;19998;-72
2023/06/12 02:08:10;;;;;;;;;;;;;;;-140.72;0.00;52187.97;6249441;23;19912;-72
2023/06/12 02:10:36;;;;;;;;;;;;;;;-140.72;0.00;52167.66;6247428;23;19911;-72
2023/06/12 02:13:01;;;;;;;;;;;;;;;-140.72;0.00;52187.97;6245877;23;20335;-72
2023/06/12 02:15:28;;;;;;;;;;;;;;;-140.72;0.00;52171.72;6217220;23;20003;-72
2023/06/12 02:17:53;;;;;;;;;;;;;;;-140.72;0.00;52171.72;6246796;23;19973;-72
2023/06/12 02:20:18;;;;;;;;;;;;;;;-140.72;0.00;52169.69;6245091;23;19990;-72
2023/06/12 02:22:43;;;;;;;;;;;;;;;-140.72;0.00;52216.34;6244820;23;20082;-72
2023/06/12 02:25:09;;;;;;;;;;;;;;;-140.72;0.00;52192.00;6244487;23;19912;-72
2023/06/12 02:27:34;;;;;;;;;;;;;;;-140.72;0.00;52187.97;6217693;23;19940;-72
2023/06/12 02:29:59;;;;;;;;;;;;;;;-140.72;0.00;52149.41;6245582;23;19915;-72
2023/06/12 02:32:24;;;;;;;;;;;;;;;-140.72;0.00;52169.69;6218204;23;20400;-72
2023/06/12 02:34:50;;;;;;;;;;;;;;;-140.72;0.00;52163.59;6244756;23;20285;-72
2023/06/12 02:37:15;;;;;;;;;;;;;;;-140.72;0.00;52192.00;6245141;23;19959;-72
2023/06/12 02:39:40;;;;;;;;;;;;;;;-140.72;0.00;52198.09;6245319;23;20324;-72
2023/06/12 02:42:07;;;;;;;;;;;;;;;-140.72;0.00;52198.09;6245236;23;19916;-72
2023/06/12 02:44:32;;;;;;;;;;;;;;;-140.72;0.00;52187.97;6245142;23;19915;-72
2023/06/12 02:46:59;;;;;;;;;;;;;;;-140.72;0.00;52204.19;6244311;22;19976;-72
2023/06/12 02:49:44;;;;;;;;;;;;;;;-140.72;0.00;52210.28;6244306;23;19912;-72
2023/06/12 02:52:09;;;;;;;;;;;;;;;-140.72;0.00;52175.78;6244698;23;20226;-72
2023/06/12 02:54:46;;;;;;;;;;;;;;;-140.72;0.00;52206.22;6244791;23;19912;-72
2023/06/12 02:57:11;;;;;;;;;;;;;;;-140.72;0.00;52230.56;6244886;23;19919;-72
2023/06/12 02:59:36;;;;;;;;;;;;;;;-140.72;0.00;52208.25;6244326;23;19911;-72
2023/06/12 03:02:01;;;;;;;;;;;;;;;-140.72;0.00;52216.34;6244458;23;19915;-72
2023/06/12 03:04:27;;;;;;;;;;;;;;;-140.72;0.00;52175.78;6244441;23;20243;-72
2023/06/12 03:06:53;;;;;;;;;;;;;;;-140.72;0.00;52216.34;6244293;23;20069;-72
2023/06/12 03:09:18;;;;;;;;;;;;;;;-140.72;0.00;52204.19;6244618;23;20188;-72
2023/06/12 03:11:44;;;;;;;;;;;;;;;-140.72;0.00;52200.13;6244028;23;20238;-72
2023/06/12 03:14:09;;;;;;;;;;;;;;;-140.72;0.00;52216.34;6244232;23;19912;-72
2023/06/12 03:16:34;;;;;;;;;;;;;;;-140.72;0.00;52210.28;6244310;23;19981;-73
2023/06/12 03:19:00;;;;;;;;;;;;;;;-140.72;0.00;52202.16;6244113;23;19911;-72
2023/06/12 03:21:25;;;;;;;;;;;;;;;-140.72;0.00;52220.41;6244146;23;20377;-72
2023/06/12 03:23:51;;;;;;;;;;;;;;;-140.72;0.00;52224.47;6244081;23;19919;-72
2023/06/12 03:26:16;;;;;;;;;;;;;;;-140.72;0.00;52208.25;6244430;23;19986;-72
2023/06/12 03:28:43;;;;;;;;;;;;;;;-140.72;0.00;52204.19;6244573;23;19916;-72
2023/06/12 03:31:08;;;;;;;;;;;;;;;-140.72;0.00;52216.34;6217534;23;19927;-72
2023/06/12 03:33:33;;;;;;;;;;;;;;;-140.72;0.00;52210.28;6244043;23;20231;-72
2023/06/12 03:35:58;;;;;;;;;;;;;;;-140.72;0.00;52200.13;6244453;23;19960;-72
2023/06/12 03:38:24;;;;;;;;;;;;;;;-140.72;0.00;52232.59;6216976;23;19919;-72
2023/06/12 03:40:49;;;;;;;;;;;;;;;-140.72;0.00;52236.66;6245660;23;19912;-72
2023/06/12 03:43:14;;;;;;;;;;;;;;;-140.72;0.00;52200.13;6246045;23;20000;-72
2023/06/12 03:45:39;;;;;;;;;;;;;;;-140.72;0.00;52222.44;6244718;22;19912;-72
2023/06/12 03:48:05;;;;;;;;;;;;;;;-140.72;0.00;52244.78;6244638;23;19912;-72
2023/06/12 03:50:30;;;;;;;;;;;;;;;-140.72;0.00;52238.69;6217521;23;19919;-72
2023/06/12 03:52:55;;;;;;;;;;;;;;;-140.72;0.00;52224.47;6244079;23;19919;-72
2023/06/12 03:55:21;;;;;;;;;;;;;;;-140.72;0.00;52204.19;6244214;23;19980;-73
2023/06/12 03:57:46;;;;;;;;;;;;;;;-140.72;0.00;52224.47;6243633;23;20439;-72
2023/06/12 04:00:12;;;;;;;;;;;;;;;-140.72;0.00;52192.00;6244275;23;19919;-72
2023/06/12 04:02:37;;;;;;;;;;;;;;;-140.72;0.00;52232.59;6243881;23;20361;-72
2023/06/12 04:05:03;;;;;;;;;;;;;;;-140.72;0.00;52230.56;6243663;23;19915;-72
2023/06/12 04:07:28;;;;;;;;;;;;;;;-140.72;0.00;52216.34;6216934;23;20323;-72
2023/06/12 04:09:54;;;;;;;;;;;;;;;-140.72;0.00;52208.25;6216685;23;19912;-72
2023/06/12 04:12:19;;;;;;;;;;;;;;;-140.72;0.00;52214.34;6244506;23;19912;-72
2023/06/12 04:14:45;;;;;;;;;;;;;;;-140.72;0.00;52220.41;6243541;23;19919;-72
2023/06/12 04:17:10;;;;;;;;;;;;;;;-140.72;0.00;52214.34;6244136;23;19919;-74
2023/06/12 04:19:36;;;;;;;;;;;;;;;-140.72;0.00;52216.34;6244471;23;19981;-76
2023/06/12 04:22:19;;;;;;;;;;;;;;;-140.72;0.00;52214.34;6217370;23;19915;-76
2023/06/12 04:24:45;;;;;;;;;;;;;;;-140.72;0.00;52187.97;6217326;23;20371;-76
2023/06/12 04:27:10;;;;;;;;;;;;;;;-140.72;0.00;52157.53;6216662;23;19912;-77
2023/06/12 04:29:37;;;;;;;;;;;;;;;-140.72;0.00;52208.25;6217417;23;19998;-78
2023/06/12 04:32:05;;;;;;;;;;;;;;;-140.72;0.00;52212.31;6244070;23;19927;-76
2023/06/12 04:34:30;;;;;;;;;;;;;;;-140.72;0.00;52208.25;6217127;23;19965;-75
2023/06/12 04:36:56;;;;;;;;;;;;;;;-140.72;0.00;52200.13;6219181;23;19939;-75
2023/06/12 04:39:22;;;;;;;;;;;;;;;-140.72;0.00;52185.94;6245959;23;19919;-75
2023/06/12 04:41:51;;;;;;;;;;;;;;;-140.72;0.00;52202.16;6246737;23;20235;-76
2023/06/12 04:44:17;;;;;;;;;;;;;;;-140.72;0.00;52187.97;6219522;23;20342;-75
2023/06/12 04:47:15;;;;;;;;;;;;;;;-140.72;0.00;52192.00;6246359;22;19916;-75
2023/06/12 04:49:40;;;;;;;;;;;;;;;-140.72;0.00;52214.34;6219757;23;19918;-75
2023/06/12 04:52:18;;;;;;;;;;;;;;;-140.72;0.00;52192.00;6246446;23;19939;-74
2023/06/12 04:54:44;;;;;;;;;;;;;;;-140.72;0.00;52185.94;6246362;23;19912;-76
2023/06/12 04:57:13;;;;;;;;;;;;;;;-140.72;0.00;52228.53;6246030;23;19963;-77
2023/06/12 04:59:48;;;;;;;;;;;;;;;-140.72;0.00;52179.84;6245351;23;20010;-74
2023/06/12 05:02:14;;;;;;;;;;;;;;;-140.72;0.00;52161.56;6246025;23;19990;-74
2023/06/12 05:04:41;;;;;;;;;;;;;;;-140.72;0.00;52204.19;6245204;23;20286;-74
2023/06/12 05:07:13;;;;;;;;;;;;;;;-140.72;0.00;52200.13;6246107;23;19938;-74
2023/06/12 05:09:57;;;;;;;;;;;;;;;-140.72;0.00;52222.44;6218220;23;19965;-72
2023/06/12 05:12:22;;;;;;;;;;;;;;;-140.72;0.00;52179.84;6219027;23;19916;-74
2023/06/12 05:18:04;;;;;;;;;;;;;;;-140.72;0.00;52169.69;6246138;23;19998;-74
2023/06/12 05:20:30;;;;;;;;;;;;;;;-140.72;0.00;52204.19;6219363;23;20348;-74
2023/06/12 05:22:55;;;;;;;;;;;;;;;-140.72;0.00;52169.69;6246157;23;19912;-74
2023/06/12 05:25:20;;;;;;;;;;;;;;;-140.72;0.00;52171.72;6219078;23;19979;-74
2023/06/12 05:27:45;;;;;;;;;;;;;;;-140.72;0.00;52179.84;6246276;23;19919;-74
2023/06/12 05:30:11;;;;;;;;;;;;;;;-140.72;0.00;52153.47;6246057;23;19966;-74
2023/06/12 05:32:36;;;;;;;;;;;;;;;-140.72;0.00;52179.84;6245842;23;19911;-74
2023/06/12 05:35:02;;;;;;;;;;;;;;;-140.72;0.00;52200.13;6245593;23;19959;-74
2023/06/12 05:37:28;;;;;;;;;;;;;;;-140.72;0.00;52183.91;6245945;23;19911;-74
2023/06/12 05:39:53;;;;;;;;;;;;;;;-140.72;0.00;52192.00;6245196;23;20259;-74
2023/06/12 05:42:18;;;;;;;;;;;;;;;-140.72;0.00;52171.72;6218065;23;19912;-74
2023/06/12 05:44:46;;;;;;;;;;;;;;;-140.72;0.00;52171.72;6246728;23;19916;-73
2023/06/12 05:47:11;;;;;;;;;;;;;;;-140.72;0.00;52167.66;6245583;22;19912;-74
2023/06/12 05:49:36;;;;;;;;;;;;;;;-140.72;0.00;52135.19;6246219;23;20196;-74
2023/06/12 05:52:02;;;;;;;;;;;;;;;-140.72;0.00;52183.91;6248775;23;19916;-74
2023/06/12 05:54:28;;;;;;;;;;;;;;;-140.72;0.00;52183.91;6249117;23;20351;-74
2023/06/12 05:56:55;;;;;;;;;;;;;;;-140.72;0.00;52161.56;6246510;23;19922;-73
2023/06/12 05:59:20;;;;;;;;;;;;;;;-140.72;0.00;52116.94;6245762;23;19912;-74
2023/06/12 06:01:46;;;;;;;;;;;;;;;-140.72;0.00;52104.75;6218189;23;19912;-74
2023/06/12 06:04:11;;;;;;;;;;;;;;;-140.72;0.00;52175.78;6245060;23;19911;-76
2023/06/12 06:06:40;;;;;;;;;;;;;;;-140.72;0.00;52135.19;6218367;23;19919;-72
2023/06/12 06:09:05;;;;;;;;;;;;;;;-140.72;0.00;52137.22;6244959;23;19915;-73
2023/06/12 06:11:31;;;;;;;;;;;;;;;-140.72;0.00;52102.75;6245520;23;19918;-73
2023/06/12 06:13:58;;;;;;;;;;;;;;;-140.72;0.00;52139.25;6245189;23;19937;-72
2023/06/12 06:16:23;;;;;;;;;;;;;;;-140.72;0.00;52135.19;6244971;23;19912;-71
2023/06/12 06:18:48;;;;;;;;;;;;;;;-140.72;0.00;52135.19;6218320;23;19986;-72
2023/06/12 06:21:13;;;;;;;;;;;;;;;-140.72;0.00;52159.56;6217864;23;19911;-71
2023/06/12 06:23:45;;;;;;;;;;;;;;;-140.72;0.00;52127.09;6245440;23;19918;-71
2023/06/12 06:26:12;;;;;;;;;;;;;;;-140.72;0.00;52141.28;6218930;23;20208;-71
2023/06/12 06:28:37;;;;;;;;;;;;;;;-140.72;0.00;52143.31;6248168;23;20243;-71
2023/06/12 06:31:06;;;;;;;;;;;;;;;-140.72;0.00;52121.00;6246337;23;19916;-71
2023/06/12 06:33:32;;;;;;;;;;;;;;;-140.72;0.00;52121.00;6216846;23;19911;-71
2023/06/12 06:35:57;;;;;;;;;;;;;;;-140.72;0.00;52102.75;6244436;23;20272;-71
2023/06/12 06:38:24;;;;;;;;;;;;;;;-140.72;0.00;52125.06;6244466;23;20347;-71
2023/06/12 06:40:50;;;;;;;;;;;;;;;-140.72;0.00;52114.91;6245034;23;19911;-72
2023/06/12 06:43:15;;;;;;;;;;;;;;;-140.72;0.00;52139.25;6244463;23;19912;-71
2023/06/12 06:45:40;;;;;;;;;;;;;;;-140.72;0.00;52090.56;6244522;23;19943;-72
2023/06/12 06:48:07;;;;;;;;;;;;;;;-140.72;0.00;52064.19;6244309;22;19934;-72
2023/06/12 06:50:32;;;;;;;;;;;;;;;-140.72;0.00;52074.34;6244990;23;20299;-72
2023/06/12 06:52:57;;;;;;;;;;;;;;;-140.72;0.00;52054.03;6245047;23;19911;-72
2023/06/12 06:55:22;;;;;;;;;;;;;;;-140.72;0.00;52068.25;6245158;23;19923;-72
2023/06/12 06:57:50;;;;;;;;;;;;;;;-140.72;0.00;52082.44;6245090;23;20356;-72
2023/06/12 07:00:16;;;;;;;;;;;;;;;-140.72;0.00;52070.28;6245622;23;19916;-72
2023/06/12 07:02:43;;;;;;;;;;;;;;;-140.72;0.00;52090.56;6244588;23;19938;-72
2023/06/12 07:05:08;;;;;;;;;;;;;;;-140.72;0.00;52066.22;6245381;23;19934;-72
2023/06/12 07:07:33;;;;;;;;;;;;;;;-140.72;0.00;52041.88;6244726;23;19929;-72
2023/06/12 07:09:58;;;;;;;;;;;;;;;-140.72;0.00;52054.03;6245038;23;19911;-72
2023/06/12 07:12:24;;;;;;;;;;;;;;;-140.72;0.00;52025.63;6244721;23;19911;-72
2023/06/12 07:14:49;;;;;;;;;;;;;;;-140.72;0.00;52017.53;6244936;23;20323;-72
2023/06/12 07:17:14;;;;;;;;;;;;;;;-140.72;0.00;52029.69;6244238;23;20249;-72
2023/06/12 07:19:39;;;;;;;;;;;;;;;-140.72;0.00;52045.94;6245310;23;20308;-72
2023/06/12 07:22:05;;;;;;;;;;;;;;;-140.72;0.00;52062.16;6244637;23;19911;-72
2023/06/12 07:24:30;;;;;;;;;;;;;;;-140.72;0.00;52029.69;6245385;23;19912;-72
2023/06/12 07:26:55;;;;;;;;;;;;;;;-140.72;0.00;52041.88;6244837;23;19911;-72
2023/06/12 07:29:22;;;;;;;;;;;;;;;-140.72;0.00;51997.22;6244941;23;19912;-72
2023/06/12 07:31:48;;;;;;;;;;;;;;;-140.72;0.00;52019.56;6244918;23;19938;-72
2023/06/12 07:34:13;;;;;;;;;;;;;;;-140.72;0.00;51978.97;6245090;23;19916;-72
2023/06/12 07:36:38;;;;;;;;;;;;;;;-140.72;0.00;51981.00;6244636;23;19911;-72
2023/06/12 07:39:03;;;;;;;;;;;;;;;-140.72;0.00;52021.56;6245100;23;20369;-72
2023/06/12 07:41:29;;;;;;;;;;;;;;;-140.72;0.00;51976.94;6244895;23;19919;-72
2023/06/12 07:43:54;;;;;;;;;;;;;;;-140.72;0.00;51940.41;6245733;23;20011;-72
2023/06/12 07:46:19;;;;;;;;;;;;;;;-140.72;0.00;51978.97;6245232;22;19954;-72
2023/06/12 07:48:45;;;;;;;;;;;;;;;-140.72;0.00;51956.66;6245229;23;20327;-73
2023/06/12 07:51:10;;;;;;;;;;;;;;;-140.72;0.00;51964.78;6218822;23;20203;-72
2023/06/12 07:53:35;;;;;;;;;;;;;;;-140.72;0.00;51938.41;6218830;23;19919;-72
2023/06/12 07:56:01;;;;;;;;;;;;;;;-140.72;0.00;51944.47;6245284;23;19912;-72
2023/06/12 07:58:26;;;;;;;;;;;;;;;-140.72;0.00;51954.63;6244657;23;19912;-72
2023/06/12 08:00:55;;;;;;;;;;;;;;;-140.72;0.00;51948.53;6217845;23;20366;-72
2023/06/12 08:03:24;;;;;;;;;;;;;;;-140.72;0.00;51944.47;6245163;23;19991;-71
2023/06/12 08:05:50;;;;;;;;;;;;;;;-140.72;0.00;51940.41;6244613;23;20181;-71
2023/06/12 08:08:15;;;;;;;;;;;;;;;-140.72;0.00;51916.06;6217415;23;19919;-71
2023/06/12 08:10:40;;;;;;;;;;;;;;;-140.72;0.00;51932.31;6246692;23;19912;-72
2023/06/12 08:13:05;;;;;;;;;;;;;;;-140.72;0.00;51907.97;6220880;23;19912;-72
2023/06/12 08:15:30;;;;;;;;;;;;;;;-140.72;0.00;51895.78;6247030;23;20361;-72
2023/06/12 08:17:56;;;;;;;;;;;;;;;-140.72;0.00;51883.63;6220491;23;20300;-73
2023/06/12 08:20:21;;;;;;;;;;;;;;;-140.72;0.00;51875.50;6246408;23;19942;-73
2023/06/12 08:22:47;;;;;;;;;;;;;;;-140.72;0.00;51859.28;6246720;23;20315;-72
2023/06/12 08:25:13;;;;;;;;;;;;;;;-140.72;0.00;51871.44;6246371;23;19987;-73
2023/06/12 08:27:38;;;;;;;;;;;;;;;-140.72;0.00;51867.38;6246793;23;20354;-72
2023/06/12 08:30:04;;;;;;;;;;;;;;;-140.72;0.00;51873.47;6246172;23;20292;-72
2023/06/12 08:32:30;;;;;;;;;;;;;;;-140.72;0.00;51855.22;6246307;23;19916;-71
2023/06/12 08:34:55;;;;;;;;;;;;;;;-140.72;0.00;51822.75;6219198;23;19987;-72
2023/06/12 08:37:20;;;;;;;;;;;;;;;-140.72;0.00;51841.00;6246678;23;19984;-72
2023/06/12 08:39:46;;;;;;;;;;;;;;;-140.72;0.00;51836.94;6246061;23;19918;-72
2023/06/12 08:42:14;;;;;;;;;;;;;;;-140.72;0.00;51794.34;6246430;23;19942;-71
2023/06/12 08:44:42;;;;;;;;;;;;;;;-140.72;0.00;51834.91;6246683;23;19954;-72
2023/06/12 08:47:08;;;;;;;;;;;;;;;-140.72;0.00;51796.38;6246581;22;19933;-72
2023/06/12 08:49:34;;;;;;;;;;;;;;;-140.72;0.00;51820.72;6246125;23;19911;-72
2023/06/12 08:52:01;;;;;;;;;;;;;;;-140.72;0.00;51790.28;6219369;23;19912;-72
2023/06/12 08:54:26;;;;;;;;;;;;;;;-140.72;0.00;51792.31;6246892;23;20323;-71
2023/06/12 08:56:54;;;;;;;;;;;;;;;-140.72;0.00;51794.34;6247361;23;19915;-72
2023/06/12 08:59:19;;;;;;;;;;;;;;;-140.72;0.00;51776.09;6246418;23;19912;-71
2023/06/12 09:01:50;;;;;;;;;;;;;;;-140.72;0.00;51741.59;6246496;23;19946;-71
2023/06/12 09:04:21;;;;;;;;;;;;;;;-140.72;0.00;51755.81;6246314;23;19912;-72
2023/06/12 09:06:48;;;;;;;;;;;;;;;-140.72;0.00;51749.72;6246086;23;20237;-71
2023/06/12 09:09:13;;;;;;;;;;;;;;;-140.72;0.00;51707.09;6245645;23;20350;-71
2023/06/12 09:11:38;;;;;;;;;;;;;;;-140.72;0.00;51701.03;6246124;23;19912;-71
2023/06/12 09:14:03;;;;;;;;;;;;;;;-140.72;0.00;51680.72;6246665;23;19918;-71
2023/06/12 09:16:30;;;;;;;;;;;;;;;-140.72;0.00;51672.63;6245735;23;19990;-72
2023/06/12 09:18:55;;;;;;;;;;;;;;;-140.72;0.00;51670.59;6250267;23;19915;-71
2023/06/12 09:21:21;;;;;;;;;;;;;;;-140.72;0.00;51658.41;6221042;23;20358;-71
2023/06/12 09:23:50;;;;;;;;;;;;;;;-140.72;0.00;51648.28;6219628;23;20351;-71
2023/06/12 09:26:15;;;;;;;;;;;;;;;-140.72;0.00;51646.25;6218634;23;20390;-71
2023/06/12 09:28:44;;;;;;;;;;;;;;;-140.72;0.00;51646.25;6245505;23;19912;-71
2023/06/12 09:31:10;;;;;;;;;;;;;;;-140.72;0.00;51650.31;6246193;23;19912;-71
2023/06/12 09:33:39;;;;;;;;;;;;;;;-140.72;0.00;51619.88;6247288;23;19945;-72
2023/06/12 09:36:04;;;;;;;;;;;;;;;-140.72;0.00;51603.63;6219968;23;19912;-71
2023/06/12 09:38:34;;;;;;;;;;;;;;;-140.72;0.00;51595.53;6246346;23;19912;-71
2023/06/12 09:41:01;;;;;;;;;;;;;;;-140.72;0.00;51552.94;6247559;23;19912;-71
2023/06/12 09:43:29;;;;;;;;;;;;;;;-140.72;0.00;51567.13;6220822;23;19911;-71
2023/06/12 09:45:55;;;;;;;;;;;;;;;-140.72;0.00;51538.72;6247125;22;19931;-71
2023/06/12 09:48:20;;;;;;;;;;;;;;;-140.72;0.00;51494.09;6219015;23;19911;-71
2023/06/12 09:50:46;;;;;;;;;;;;;;;-140.72;0.00;51461.63;6245969;23;20045;-72
2023/06/12 09:53:12;;;;;;;;;;;;;;;-140.72;0.00;51518.44;6219437;23;19993;-71
2023/06/12 09:55:39;;;;;;;;;;;;;;;-140.72;0.00;51490.03;6246582;23;19915;-72
2023/06/12 09:58:05;;;;;;;;;;;;;;;-140.72;0.00;51477.88;6218691;23;20225;-71
2023/06/12 10:00:31;;;;;;;;;;;;;;;-140.72;0.00;51500.19;6246142;23;19938;-71
2023/06/12 10:03:00;;;;;;;;;;;;;;;-140.72;0.00;51445.41;6245169;23;19935;-71
2023/06/12 10:05:31;;;;;;;;;;;;;;;-140.72;0.00;51441.34;6246042;23;19986;-72
2023/06/12 10:07:59;;;;;;;;;;;;;;;-140.72;0.00;51417.00;6218596;23;19927;-72
2023/06/12 10:10:25;;;;;;;;;;;;;;;-140.72;0.00;51433.22;6245473;23;19918;-72
2023/06/12 10:12:51;;;;;;;;;;;;;;;-140.72;0.00;51445.41;6245503;23;20011;-72
2023/06/12 10:15:17;;;;;;;;;;;;;;;-140.72;0.00;51412.94;6218611;23;19958;-71
2023/06/12 10:17:42;;;;;;;;;;;;;;;-140.72;0.00;51384.53;6218031;23;19942;-71
2023/06/12 10:20:09;;;;;;;;;;;;;;;-140.72;0.00;51321.66;6244979;23;19916;-72
2023/06/12 10:22:34;;;;;;;;;;;;;;;-140.72;0.00;51319.63;6245567;23;20294;-72
2023/06/12 10:25:00;;;;;;;;;;;;;;;-140.72;0.00;51317.59;6218611;23;19951;-71
2023/06/12 10:27:26;;;;;;;;;;;;;;;-140.72;0.00;51327.75;6218971;23;19917;-71
2023/06/12 10:29:56;;;;;;;;;;;;;;;-140.72;0.00;51307.47;6245033;23;20258;-72
2023/06/12 10:32:21;;;;;;;;;;;;;;;-140.72;0.00;51250.66;6245278;23;19912;-71
2023/06/12 10:34:48;;;;;;;;;;;;;;;-140.72;0.00;51303.41;6245014;23;19934;-72
2023/06/12 10:37:20;;;;;;;;;;;;;;;-140.72;0.00;51283.13;6245623;23;19911;-72
2023/06/12 10:39:46;;;;;;;;;;;;;;;-140.72;0.00;51248.63;6245050;23;19931;-71
2023/06/12 10:42:11;;;;;;;;;;;;;;;-140.72;0.00;51252.69;6245862;23;19911;-71
2023/06/12 10:44:41;;;;;;;;;;;;;;;-140.72;0.00;51323.69;6245953;23;19953;-71
2023/06/12 10:47:17;;;;;;;;;;;;;;;-140.72;0.00;51285.16;6247911;22;19939;-71
2023/06/12 10:49:58;;;;;;;;;;;;;;;-140.72;0.00;51270.94;6248392;23;19920;-71
2023/06/12 10:52:24;;;;;;;;;;;;;;;-140.72;0.00;51260.81;6244574;23;20290;-71
2023/06/12 10:55:09;;;;;;;;;;;;;;;-140.72;0.00;51216.19;6244946;23;19911;-71
2023/06/12 10:57:35;;;;;;;;;;;;;;;-140.72;0.00;51212.13;6244544;23;20045;-71
2023/06/12 11:00:00;;;;;;;;;;;;;;;-140.72;0.00;51236.47;6244670;23;20340;-71
2023/06/12 11:02:25;;;;;;;;;;;;;;;-140.72;0.00;51291.22;6244785;23;19943;-71
2023/06/12 11:04:51;;;;;;;;;;;;;;;-140.72;0.00;51262.84;6244784;23;19939;-71
2023/06/12 11:07:16;;;;;;;;;;;;;;;-140.72;0.00;51214.16;6244973;23;19912;-71
2023/06/12 11:09:41;;;;;;;;;;;;;;;-140.72;0.00;51151.25;6245129;23;19915;-71
2023/06/12 11:12:07;;;;;;;;;;;;;;;-140.72;0.00;51193.88;6245686;23;20320;-72
2023/06/12 11:14:32;;;;;;;;;;;;;;;-140.72;0.00;51266.88;6244753;23;19915;-72
2023/06/12 11:16:58;;;;;;;;;;;;;;;-140.72;0.00;51206.03;6245016;23;20367;-72
2023/06/12 11:19:25;;;;;;;;;;;;;;;-140.72;0.00;51218.22;6217539;23;19922;-72
2023/06/12 11:21:50;;;;;;;;;;;;;;;-140.72;0.00;51232.41;6244659;23;19934;-71
2023/06/12 11:24:17;;;;;;;;;;;;;;;-140.72;0.00;51191.84;6245429;23;19935;-71
2023/06/12 11:26:42;;;;;;;;;;;;;;;-140.72;0.00;51250.66;6218404;23;19915;-71
2023/06/12 11:29:11;;;;;;;;;;;;;;;-140.72;0.00;51181.69;6245656;23;19912;-72
2023/06/12 11:31:37;;;;;;;;;;;;;;;-140.72;0.00;51153.28;6244924;23;20506;-72
2023/06/12 11:34:03;;;;;;;;;;;;;;;-140.72;0.00;51120.84;6244856;23;19942;-72
2023/06/12 11:36:28;;;;;;;;;;;;;;;-140.72;0.00;51151.25;6244972;23;19943;-72
2023/06/12 11:38:53;;;;;;;;;;;;;;;-140.72;0.00;51165.47;6244852;23;19912;-72
2023/06/12 11:41:19;;;;;;;;;;;;;;;-140.72;0.00;51155.31;6244625;23;19911;-71
2023/06/12 11:43:45;;;;;;;;;;;;;;;-140.72;0.00;51157.34;6244577;23;20193;-71
2023/06/12 11:46:10;;;;;;;;;;;;;;;-140.72;0.00;51191.84;6244276;22;20349;-71
2023/06/12 11:48:35;;;;;;;;;;;;;;;-140.72;0.00;51149.22;6217551;23;19923;-71
2023/06/12 11:51:01;;;;;;;;;;;;;;;-140.72;0.00;51116.78;6217399;23;20133;-72
2023/06/12 11:53:26;;;;;;;;;;;;;;;-140.72;0.00;51159.38;6244917;23;19993;-71
2023/06/12 11:56:02;;;;;;;;;;;;;;;-140.72;0.00;51126.94;6244750;23;19912;-72
2023/06/12 11:58:31;;;;;;;;;;;;;;;-140.72;0.00;51122.88;6244700;23;19939;-72
2023/06/12 12:00:57;;;;;;;;;;;;;;;-140.72;0.00;51139.09;6244409;23;19911;-72
2023/06/12 12:03:23;;;;;;;;;;;;;;;-140.72;0.00;51106.63;6244993;23;19915;-72
2023/06/12 12:05:50;;;;;;;;;;;;;;;-140.72;0.00;51072.16;6244759;23;19912;-72
2023/06/12 12:08:15;;;;;;;;;;;;;;;-140.72;0.00;51053.91;6244462;23;20294;-72
2023/06/12 12:10:40;;;;;;;;;;;;;;;-140.72;0.00;51057.97;6244222;23;19939;-72
2023/06/12 12:13:06;;;;;;;;;;;;;;;-140.72;0.00;51057.97;6244345;23;19912;-71
2023/06/12 12:15:34;;;;;;;;;;;;;;;-140.72;0.00;51059.97;6245482;23;19942;-71
2023/06/12 12:18:00;;;;;;;;;;;;;;;-140.72;0.00;51051.88;6244785;23;19912;-72
2023/06/12 12:20:25;;;;;;;;;;;;;;;-140.72;0.00;51062.00;6244411;23;20014;-72
2023/06/12 12:22:52;;;;;;;;;;;;;;;-140.72;0.00;51015.34;6244668;23;20033;-72
2023/06/12 12:25:21;;;;;;;;;;;;;;;-140.72;0.00;51055.94;6250265;23;19918;-72
2023/06/12 12:27:49;;;;;;;;;;;;;;;-140.72;0.00;51080.28;6246305;23;19991;-72
2023/06/12 12:30:15;;;;;;;;;;;;;;;-140.72;0.00;51066.06;6218188;23;19935;-72
2023/06/12 12:32:44;;;;;;;;;;;;;;;-140.72;0.00;51062.00;6218117;23;19935;-72
2023/06/12 12:35:09;;;;;;;;;;;;;;;-140.72;0.00;51072.16;6245124;23;19931;-72
2023/06/12 12:37:35;;;;;;;;;;;;;;;-140.72;0.00;51124.91;6244860;23;19931;-73